sensor_id;sensor_type;location;lat;lon;timestamp;P1;durP1;ratioP1;P2;durP2;ratioP2
77586;SDS011;66744;49.716;17.158;2024-01-15T00:01:19;6.13;;;2.50;;
77586;SDS011;66744;49.716;17.158;2024-01-15T00:04:20;4.95;;;1.90;;
77586;SDS011;66744;49.716;17.158;2024-01-15T00:07:23;4.40;;;2.58;;
77586;SDS011;66744;49.716;17.158;2024-01-15T00:10:24;4.53;;;2.42;;
77586;SDS011;66744;49.716;17.158;2024-01-15T00:13:25;4.68;;;2.55;;
77586;SDS011;66744;49.716;17.158;2024-01-15T00:16:27;4.38;;;2.63;;
77586;SDS011;66744;49.716;17.158;2024-01-15T00:19:33;5.03;;;2.38;;
77586;SDS011;66744;49.716;17.158;2024-01-15T00:22:34;4.82;;;2.30;;
77586;SDS011;66744;49.716;17.158;2024-01-15T00:25:38;3.38;;;1.83;;
77586;SDS011;66744;49.716;17.158;2024-01-15T00:28:42;5.47;;;2.72;;
77586;SDS011;66744;49.716;17.158;2024-01-15T00:31:43;4.35;;;1.98;;
77586;SDS011;66744;49.716;17.158;2024-01-15T00:34:46;5.03;;;2.28;;
77586;SDS011;66744;49.716;17.158;2024-01-15T00:37:48;7.53;;;3.53;;
77586;SDS011;66744;49.716;17.158;2024-01-15T00:40:51;8.35;;;3.42;;
77586;SDS011;66744;49.716;17.158;2024-01-15T00:43:54;12.18;;;4.72;;
77586;SDS011;66744;49.716;17.158;2024-01-15T00:46:55;7.57;;;3.33;;
77586;SDS011;66744;49.716;17.158;2024-01-15T00:49:59;6.25;;;2.72;;
77586;SDS011;66744;49.716;17.158;2024-01-15T00:53:03;5.72;;;2.65;;
77586;SDS011;66744;49.716;17.158;2024-01-15T00:56:10;4.25;;;2.40;;
77586;SDS011;66744;49.716;17.158;2024-01-15T00:59:11;6.50;;;2.95;;
77586;SDS011;66744;49.716;17.158;2024-01-15T01:02:17;3.47;;;1.85;;
77586;SDS011;66744;49.716;17.158;2024-01-15T01:05:18;3.65;;;1.95;;
77586;SDS011;66744;49.716;17.158;2024-01-15T01:08:21;3.88;;;1.83;;
77586;SDS011;66744;49.716;17.158;2024-01-15T01:11:22;4.28;;;1.98;;
77586;SDS011;66744;49.716;17.158;2024-01-15T01:14:26;7.20;;;2.50;;
77586;SDS011;66744;49.716;17.158;2024-01-15T01:17:28;8.00;;;3.05;;
77586;SDS011;66744;49.716;17.158;2024-01-15T01:20:32;4.50;;;2.33;;
77586;SDS011;66744;49.716;17.158;2024-01-15T01:23:34;4.55;;;2.10;;
77586;SDS011;66744;49.716;17.158;2024-01-15T01:26:37;4.97;;;2.47;;
77586;SDS011;66744;49.716;17.158;2024-01-15T01:29:39;2.17;;;1.73;;
77586;SDS011;66744;49.716;17.158;2024-01-15T01:32:40;3.28;;;1.92;;
77586;SDS011;66744;49.716;17.158;2024-01-15T01:35:42;3.20;;;1.63;;
77586;SDS011;66744;49.716;17.158;2024-01-15T01:38:44;2.85;;;1.77;;
77586;SDS011;66744;49.716;17.158;2024-01-15T01:41:46;2.58;;;1.60;;
77586;SDS011;66744;49.716;17.158;2024-01-15T01:44:48;4.47;;;2.20;;
77586;SDS011;66744;49.716;17.158;2024-01-15T01:47:52;3.47;;;1.67;;
77586;SDS011;66744;49.716;17.158;2024-01-15T01:50:54;3.70;;;1.83;;
77586;SDS011;66744;49.716;17.158;2024-01-15T01:53:57;4.30;;;1.80;;
77586;SDS011;66744;49.716;17.158;2024-01-15T01:57:02;3.45;;;2.28;;
77586;SDS011;66744;49.716;17.158;2024-01-15T02:04:39;3.30;;;1.80;;
77586;SDS011;66744;49.716;17.158;2024-01-15T02:07:42;3.78;;;1.77;;
77586;SDS011;66744;49.716;17.158;2024-01-15T02:10:45;3.45;;;1.98;;
77586;SDS011;66744;49.716;17.158;2024-01-15T02:13:49;4.22;;;1.85;;
77586;SDS011;66744;49.716;17.158;2024-01-15T02:16:52;4.30;;;1.92;;
77586;SDS011;66744;49.716;17.158;2024-01-15T02:19:55;3.97;;;1.90;;
77586;SDS011;66744;49.716;17.158;2024-01-15T02:23:16;4.28;;;2.03;;
77586;SDS011;66744;49.716;17.158;2024-01-15T02:26:21;4.60;;;2.00;;
77586;SDS011;66744;49.716;17.158;2024-01-15T02:29:22;3.53;;;1.85;;
77586;SDS011;66744;49.716;17.158;2024-01-15T02:32:26;2.50;;;1.80;;
77586;SDS011;66744;49.716;17.158;2024-01-15T02:35:28;2.50;;;1.30;;
77586;SDS011;66744;49.716;17.158;2024-01-15T02:38:32;2.58;;;1.70;;
77586;SDS011;66744;49.716;17.158;2024-01-15T02:41:33;4.18;;;1.88;;
77586;SDS011;66744;49.716;17.158;2024-01-15T02:44:36;4.65;;;2.25;;
77586;SDS011;66744;49.716;17.158;2024-01-15T02:47:39;2.22;;;1.38;;
77586;SDS011;66744;49.716;17.158;2024-01-15T02:50:42;2.72;;;1.52;;
77586;SDS011;66744;49.716;17.158;2024-01-15T02:53:43;4.80;;;1.85;;
77586;SDS011;66744;49.716;17.158;2024-01-15T02:56:50;4.32;;;1.95;;
77586;SDS011;66744;49.716;17.158;2024-01-15T02:59:52;2.88;;;1.65;;
77586;SDS011;66744;49.716;17.158;2024-01-15T03:02:55;3.70;;;1.85;;
77586;SDS011;66744;49.716;17.158;2024-01-15T03:05:57;3.22;;;1.95;;
77586;SDS011;66744;49.716;17.158;2024-01-15T03:09:02;4.28;;;2.10;;
77586;SDS011;66744;49.716;17.158;2024-01-15T03:12:04;4.30;;;2.30;;
77586;SDS011;66744;49.716;17.158;2024-01-15T03:15:09;4.00;;;1.77;;
77586;SDS011;66744;49.716;17.158;2024-01-15T03:18:15;2.97;;;1.92;;
77586;SDS011;66744;49.716;17.158;2024-01-15T03:21:16;4.63;;;1.73;;
77586;SDS011;66744;49.716;17.158;2024-01-15T03:24:18;3.45;;;1.90;;
77586;SDS011;66744;49.716;17.158;2024-01-15T03:27:20;6.43;;;2.28;;
77586;SDS011;66744;49.716;17.158;2024-01-15T03:30:22;4.97;;;2.13;;
77586;SDS011;66744;49.716;17.158;2024-01-15T03:33:23;2.15;;;1.63;;
77586;SDS011;66744;49.716;17.158;2024-01-15T03:36:25;5.32;;;2.25;;
77586;SDS011;66744;49.716;17.158;2024-01-15T03:39:29;3.75;;;2.22;;
77586;SDS011;66744;49.716;17.158;2024-01-15T03:42:36;4.72;;;2.15;;
77586;SDS011;66744;49.716;17.158;2024-01-15T03:45:38;3.40;;;1.75;;
77586;SDS011;66744;49.716;17.158;2024-01-15T03:48:40;4.50;;;2.17;;
77586;SDS011;66744;49.716;17.158;2024-01-15T03:51:42;3.85;;;1.95;;
77586;SDS011;66744;49.716;17.158;2024-01-15T03:54:43;2.85;;;1.80;;
77586;SDS011;66744;49.716;17.158;2024-01-15T03:57:48;3.38;;;1.73;;
77586;SDS011;66744;49.716;17.158;2024-01-15T04:00:50;3.58;;;2.30;;
77586;SDS011;66744;49.716;17.158;2024-01-15T04:03:51;4.53;;;1.58;;
77586;SDS011;66744;49.716;17.158;2024-01-15T04:06:57;5.32;;;1.95;;
77586;SDS011;66744;49.716;17.158;2024-01-15T04:10:00;3.03;;;1.67;;
77586;SDS011;66744;49.716;17.158;2024-01-15T04:13:02;2.13;;;1.42;;
77586;SDS011;66744;49.716;17.158;2024-01-15T04:16:05;3.00;;;1.90;;
77586;SDS011;66744;49.716;17.158;2024-01-15T04:19:08;2.55;;;1.88;;
77586;SDS011;66744;49.716;17.158;2024-01-15T04:22:09;3.17;;;1.80;;
77586;SDS011;66744;49.716;17.158;2024-01-15T04:25:10;3.88;;;2.45;;
77586;SDS011;66744;49.716;17.158;2024-01-15T04:28:13;3.42;;;2.00;;
77586;SDS011;66744;49.716;17.158;2024-01-15T04:31:24;3.25;;;2.08;;
77586;SDS011;66744;49.716;17.158;2024-01-15T04:34:30;5.70;;;2.42;;
77586;SDS011;66744;49.716;17.158;2024-01-15T04:37:32;4.00;;;2.03;;
77586;SDS011;66744;49.716;17.158;2024-01-15T04:40:35;4.07;;;2.30;;
77586;SDS011;66744;49.716;17.158;2024-01-15T04:43:36;3.63;;;2.10;;
77586;SDS011;66744;49.716;17.158;2024-01-15T04:46:37;3.42;;;1.90;;
77586;SDS011;66744;49.716;17.158;2024-01-15T04:49:39;3.15;;;1.52;;
77586;SDS011;66744;49.716;17.158;2024-01-15T04:52:40;2.60;;;1.52;;
77586;SDS011;66744;49.716;17.158;2024-01-15T04:55:41;3.70;;;1.73;;
77586;SDS011;66744;49.716;17.158;2024-01-15T04:58:42;3.53;;;1.90;;
77586;SDS011;66744;49.716;17.158;2024-01-15T05:01:44;3.90;;;1.70;;
77586;SDS011;66744;49.716;17.158;2024-01-15T05:04:48;3.83;;;1.88;;
77586;SDS011;66744;49.716;17.158;2024-01-15T05:07:52;5.25;;;2.33;;
77586;SDS011;66744;49.716;17.158;2024-01-15T05:10:56;2.95;;;1.80;;
77586;SDS011;66744;49.716;17.158;2024-01-15T05:13:57;4.13;;;1.90;;
77586;SDS011;66744;49.716;17.158;2024-01-15T05:17:01;3.47;;;2.08;;
77586;SDS011;66744;49.716;17.158;2024-01-15T05:20:03;4.47;;;1.92;;
77586;SDS011;66744;49.716;17.158;2024-01-15T05:23:05;4.75;;;2.08;;
77586;SDS011;66744;49.716;17.158;2024-01-15T05:26:06;5.50;;;2.22;;
77586;SDS011;66744;49.716;17.158;2024-01-15T05:29:12;6.88;;;3.10;;
77586;SDS011;66744;49.716;17.158;2024-01-15T05:32:16;4.43;;;2.25;;
77586;SDS011;66744;49.716;17.158;2024-01-15T05:35:18;4.35;;;2.10;;
77586;SDS011;66744;49.716;17.158;2024-01-15T05:38:20;7.30;;;2.58;;
77586;SDS011;66744;49.716;17.158;2024-01-15T05:41:23;4.07;;;1.88;;
77586;SDS011;66744;49.716;17.158;2024-01-15T05:44:26;4.57;;;2.15;;
77586;SDS011;66744;49.716;17.158;2024-01-15T05:47:31;4.30;;;2.08;;
77586;SDS011;66744;49.716;17.158;2024-01-15T05:50:33;6.28;;;3.10;;
77586;SDS011;66744;49.716;17.158;2024-01-15T05:53:39;6.70;;;3.03;;
77586;SDS011;66744;49.716;17.158;2024-01-15T05:56:44;5.00;;;2.85;;
77586;SDS011;66744;49.716;17.158;2024-01-15T05:59:51;5.00;;;2.83;;
77586;SDS011;66744;49.716;17.158;2024-01-15T06:02:54;4.60;;;2.42;;
77586;SDS011;66744;49.716;17.158;2024-01-15T06:05:56;4.32;;;2.42;;
77586;SDS011;66744;49.716;17.158;2024-01-15T06:08:58;5.00;;;2.42;;
77586;SDS011;66744;49.716;17.158;2024-01-15T06:12:07;7.88;;;3.25;;
77586;SDS011;66744;49.716;17.158;2024-01-15T06:15:10;5.63;;;2.95;;
77586;SDS011;66744;49.716;17.158;2024-01-15T06:18:13;7.00;;;3.20;;
77586;SDS011;66744;49.716;17.158;2024-01-15T06:21:20;9.10;;;3.45;;
77586;SDS011;66744;49.716;17.158;2024-01-15T06:24:22;8.88;;;3.60;;
77586;SDS011;66744;49.716;17.158;2024-01-15T06:27:24;6.63;;;4.00;;
77586;SDS011;66744;49.716;17.158;2024-01-15T06:30:25;8.68;;;4.03;;
77586;SDS011;66744;49.716;17.158;2024-01-15T06:33:28;7.85;;;3.85;;
77586;SDS011;66744;49.716;17.158;2024-01-15T06:36:32;8.15;;;3.67;;
77586;SDS011;66744;49.716;17.158;2024-01-15T06:39:35;10.20;;;4.60;;
77586;SDS011;66744;49.716;17.158;2024-01-15T06:42:37;9.77;;;4.35;;
77586;SDS011;66744;49.716;17.158;2024-01-15T06:45:44;10.00;;;4.68;;
77586;SDS011;66744;49.716;17.158;2024-01-15T06:48:45;9.30;;;4.38;;
77586;SDS011;66744;49.716;17.158;2024-01-15T06:51:46;8.10;;;3.88;;
77586;SDS011;66744;49.716;17.158;2024-01-15T06:54:48;8.10;;;4.45;;
77586;SDS011;66744;49.716;17.158;2024-01-15T06:57:50;10.50;;;4.90;;
77586;SDS011;66744;49.716;17.158;2024-01-15T07:00:54;7.05;;;4.32;;
77586;SDS011;66744;49.716;17.158;2024-01-15T07:03:57;9.73;;;5.47;;
77586;SDS011;66744;49.716;17.158;2024-01-15T07:06:59;10.52;;;5.38;;
77586;SDS011;66744;49.716;17.158;2024-01-15T07:10:05;8.57;;;4.28;;
77586;SDS011;66744;49.716;17.158;2024-01-15T07:13:13;10.02;;;4.10;;
77586;SDS011;66744;49.716;17.158;2024-01-15T07:16:16;11.52;;;5.53;;
77586;SDS011;66744;49.716;17.158;2024-01-15T07:19:20;11.75;;;5.45;;
77586;SDS011;66744;49.716;17.158;2024-01-15T07:22:22;11.27;;;4.85;;
77586;SDS011;66744;49.716;17.158;2024-01-15T07:25:24;11.80;;;5.03;;
77586;SDS011;66744;49.716;17.158;2024-01-15T07:28:29;8.80;;;5.13;;
77586;SDS011;66744;49.716;17.158;2024-01-15T07:31:32;11.13;;;5.28;;
77586;SDS011;66744;49.716;17.158;2024-01-15T07:34:34;9.43;;;4.88;;
77586;SDS011;66744;49.716;17.158;2024-01-15T07:37:35;10.65;;;5.07;;
77586;SDS011;66744;49.716;17.158;2024-01-15T07:40:37;13.15;;;5.60;;
77586;SDS011;66744;49.716;17.158;2024-01-15T07:43:42;11.23;;;5.50;;
77586;SDS011;66744;49.716;17.158;2024-01-15T07:46:45;12.68;;;5.72;;
77586;SDS011;66744;49.716;17.158;2024-01-15T07:49:48;10.52;;;6.30;;
77586;SDS011;66744;49.716;17.158;2024-01-15T07:52:50;13.02;;;5.72;;
77586;SDS011;66744;49.716;17.158;2024-01-15T07:55:54;14.10;;;5.97;;
77586;SDS011;66744;49.716;17.158;2024-01-15T07:58:57;12.70;;;5.97;;
77586;SDS011;66744;49.716;17.158;2024-01-15T08:01:59;13.27;;;6.55;;
77586;SDS011;66744;49.716;17.158;2024-01-15T08:05:03;13.38;;;6.72;;
77586;SDS011;66744;49.716;17.158;2024-01-15T08:08:08;12.90;;;6.95;;
77586;SDS011;66744;49.716;17.158;2024-01-15T08:11:11;14.77;;;6.85;;
77586;SDS011;66744;49.716;17.158;2024-01-15T08:14:13;15.18;;;5.90;;
77586;SDS011;66744;49.716;17.158;2024-01-15T08:17:15;14.25;;;5.60;;
77586;SDS011;66744;49.716;17.158;2024-01-15T08:20:17;15.93;;;6.50;;
77586;SDS011;66744;49.716;17.158;2024-01-15T08:23:19;14.32;;;6.55;;
77586;SDS011;66744;49.716;17.158;2024-01-15T08:26:21;15.20;;;6.88;;
77586;SDS011;66744;49.716;17.158;2024-01-15T08:29:22;14.43;;;6.85;;
77586;SDS011;66744;49.716;17.158;2024-01-15T08:32:25;13.02;;;6.88;;
77586;SDS011;66744;49.716;17.158;2024-01-15T08:35:27;14.43;;;7.47;;
77586;SDS011;66744;49.716;17.158;2024-01-15T08:38:29;11.95;;;6.55;;
77586;SDS011;66744;49.716;17.158;2024-01-15T08:41:32;13.70;;;7.20;;
77586;SDS011;66744;49.716;17.158;2024-01-15T08:44:36;12.80;;;5.07;;
77586;SDS011;66744;49.716;17.158;2024-01-15T08:47:41;14.40;;;7.22;;
77586;SDS011;66744;49.716;17.158;2024-01-15T08:50:44;13.48;;;6.65;;
77586;SDS011;66744;49.716;17.158;2024-01-15T08:53:48;17.77;;;8.13;;
77586;SDS011;66744;49.716;17.158;2024-01-15T08:56:50;15.38;;;6.97;;
77586;SDS011;66744;49.716;17.158;2024-01-15T08:59:54;13.80;;;7.05;;
77586;SDS011;66744;49.716;17.158;2024-01-15T09:02:58;12.82;;;7.07;;
77586;SDS011;66744;49.716;17.158;2024-01-15T09:06:00;15.18;;;7.20;;
77586;SDS011;66744;49.716;17.158;2024-01-15T09:09:05;14.63;;;7.28;;
77586;SDS011;66744;49.716;17.158;2024-01-15T09:12:07;16.90;;;7.60;;
77586;SDS011;66744;49.716;17.158;2024-01-15T09:18:22;16.17;;;7.80;;
77586;SDS011;66744;49.716;17.158;2024-01-15T09:21:23;12.38;;;6.43;;
77586;SDS011;66744;49.716;17.158;2024-01-15T09:24:25;15.30;;;6.97;;
77586;SDS011;66744;49.716;17.158;2024-01-15T09:27:27;17.23;;;7.57;;
77586;SDS011;66744;49.716;17.158;2024-01-15T09:30:29;15.57;;;7.25;;
77586;SDS011;66744;49.716;17.158;2024-01-15T09:33:39;14.30;;;7.38;;
77586;SDS011;66744;49.716;17.158;2024-01-15T09:36:40;11.73;;;6.07;;
77586;SDS011;66744;49.716;17.158;2024-01-15T09:39:43;13.70;;;7.05;;
77586;SDS011;66744;49.716;17.158;2024-01-15T09:42:44;12.10;;;6.32;;
77586;SDS011;66744;49.716;17.158;2024-01-15T09:45:47;14.82;;;6.88;;
77586;SDS011;66744;49.716;17.158;2024-01-15T09:48:54;14.60;;;6.88;;
77586;SDS011;66744;49.716;17.158;2024-01-15T09:52:01;13.35;;;5.82;;
77586;SDS011;66744;49.716;17.158;2024-01-15T09:55:03;11.10;;;6.07;;
77586;SDS011;66744;49.716;17.158;2024-01-15T09:58:09;10.13;;;4.85;;
77586;SDS011;66744;49.716;17.158;2024-01-15T10:01:11;10.13;;;5.40;;
77586;SDS011;66744;49.716;17.158;2024-01-15T10:04:18;9.40;;;5.78;;
77586;SDS011;66744;49.716;17.158;2024-01-15T10:07:19;12.23;;;5.75;;
77586;SDS011;66744;49.716;17.158;2024-01-15T10:10:23;9.82;;;4.90;;
77586;SDS011;66744;49.716;17.158;2024-01-15T10:13:27;11.48;;;6.65;;
77586;SDS011;66744;49.716;17.158;2024-01-15T10:16:34;11.32;;;5.28;;
77586;SDS011;66744;49.716;17.158;2024-01-15T10:19:38;12.55;;;5.70;;
77586;SDS011;66744;49.716;17.158;2024-01-15T10:22:46;15.25;;;6.57;;
77586;SDS011;66744;49.716;17.158;2024-01-15T10:25:51;12.80;;;5.88;;
77586;SDS011;66744;49.716;17.158;2024-01-15T10:28:52;13.98;;;5.18;;
77586;SDS011;66744;49.716;17.158;2024-01-15T10:31:54;14.43;;;5.60;;
77586;SDS011;66744;49.716;17.158;2024-01-15T10:34:57;8.32;;;4.57;;
77586;SDS011;66744;49.716;17.158;2024-01-15T10:38:12;9.95;;;4.78;;
77586;SDS011;66744;49.716;17.158;2024-01-15T10:41:16;10.45;;;4.60;;
77586;SDS011;66744;49.716;17.158;2024-01-15T10:44:17;8.98;;;4.90;;
77586;SDS011;66744;49.716;17.158;2024-01-15T10:47:20;12.23;;;5.28;;
77586;SDS011;66744;49.716;17.158;2024-01-15T10:50:24;9.68;;;4.70;;
77586;SDS011;66744;49.716;17.158;2024-01-15T10:53:30;11.48;;;4.70;;
77586;SDS011;66744;49.716;17.158;2024-01-15T10:56:35;8.95;;;4.57;;
77586;SDS011;66744;49.716;17.158;2024-01-15T10:59:37;8.65;;;4.07;;
77586;SDS011;66744;49.716;17.158;2024-01-15T11:02:39;9.30;;;3.85;;
77586;SDS011;66744;49.716;17.158;2024-01-15T11:05:55;6.82;;;3.92;;
77586;SDS011;66744;49.716;17.158;2024-01-15T11:08:56;8.77;;;3.85;;
77586;SDS011;66744;49.716;17.158;2024-01-15T11:12:09;7.68;;;4.00;;
77586;SDS011;66744;49.716;17.158;2024-01-15T11:15:15;7.85;;;4.15;;
77586;SDS011;66744;49.716;17.158;2024-01-15T11:18:21;9.95;;;4.15;;
77586;SDS011;66744;49.716;17.158;2024-01-15T11:21:24;9.40;;;4.15;;
77586;SDS011;66744;49.716;17.158;2024-01-15T11:27:41;17.35;;;4.03;;
77586;SDS011;66744;49.716;17.158;2024-01-15T11:30:47;7.78;;;3.72;;
77586;SDS011;66744;49.716;17.158;2024-01-15T11:33:49;7.18;;;3.90;;
77586;SDS011;66744;49.716;17.158;2024-01-15T11:40:01;10.23;;;4.90;;
77586;SDS011;66744;49.716;17.158;2024-01-15T11:43:13;9.80;;;3.47;;
77586;SDS011;66744;49.716;17.158;2024-01-15T11:46:18;8.40;;;4.07;;
77586;SDS011;66744;49.716;17.158;2024-01-15T11:53:02;5.47;;;3.15;;
77586;SDS011;66744;49.716;17.158;2024-01-15T11:56:11;9.70;;;3.47;;
77586;SDS011;66744;49.716;17.158;2024-01-15T11:59:23;7.03;;;3.90;;
77586;SDS011;66744;49.716;17.158;2024-01-15T12:02:32;7.53;;;3.88;;
77586;SDS011;66744;49.716;17.158;2024-01-15T12:05:39;9.80;;;4.20;;
77586;SDS011;66744;49.716;17.158;2024-01-15T12:08:42;6.82;;;3.65;;
77586;SDS011;66744;49.716;17.158;2024-01-15T12:12:07;7.93;;;3.55;;
77586;SDS011;66744;49.716;17.158;2024-01-15T12:15:18;7.18;;;3.67;;
77586;SDS011;66744;49.716;17.158;2024-01-15T12:18:20;7.68;;;4.47;;
77586;SDS011;66744;49.716;17.158;2024-01-15T12:21:21;6.90;;;3.45;;
77586;SDS011;66744;49.716;17.158;2024-01-15T12:24:23;9.80;;;4.35;;
77586;SDS011;66744;49.716;17.158;2024-01-15T12:27:31;9.30;;;3.78;;
77586;SDS011;66744;49.716;17.158;2024-01-15T12:30:33;7.40;;;3.67;;
77586;SDS011;66744;49.716;17.158;2024-01-15T12:33:40;9.07;;;3.85;;
77586;SDS011;66744;49.716;17.158;2024-01-15T12:36:51;7.57;;;3.47;;
77586;SDS011;66744;49.716;17.158;2024-01-15T12:40:06;8.07;;;3.95;;
77586;SDS011;66744;49.716;17.158;2024-01-15T12:43:17;7.40;;;3.80;;
77586;SDS011;66744;49.716;17.158;2024-01-15T12:46:23;6.53;;;3.65;;
77586;SDS011;66744;49.716;17.158;2024-01-15T12:49:29;8.18;;;4.22;;
77586;SDS011;66744;49.716;17.158;2024-01-15T12:52:32;9.65;;;4.55;;
77586;SDS011;66744;49.716;17.158;2024-01-15T12:55:34;6.88;;;3.75;;
77586;SDS011;66744;49.716;17.158;2024-01-15T12:58:36;5.68;;;3.28;;
77586;SDS011;66744;49.716;17.158;2024-01-15T13:01:38;6.85;;;3.25;;
77586;SDS011;66744;49.716;17.158;2024-01-15T13:04:40;5.28;;;3.35;;
77586;SDS011;66744;49.716;17.158;2024-01-15T13:07:43;7.15;;;4.43;;
77586;SDS011;66744;49.716;17.158;2024-01-15T13:10:45;11.98;;;3.70;;
77586;SDS011;66744;49.716;17.158;2024-01-15T13:13:48;8.25;;;3.58;;
77586;SDS011;66744;49.716;17.158;2024-01-15T13:16:51;8.48;;;3.47;;
77586;SDS011;66744;49.716;17.158;2024-01-15T13:19:56;6.43;;;3.70;;
77586;SDS011;66744;49.716;17.158;2024-01-15T13:23:01;7.38;;;3.47;;
77586;SDS011;66744;49.716;17.158;2024-01-15T13:26:04;8.98;;;3.97;;
77586;SDS011;66744;49.716;17.158;2024-01-15T13:29:06;8.23;;;4.25;;
77586;SDS011;66744;49.716;17.158;2024-01-15T13:32:07;7.78;;;3.67;;
77586;SDS011;66744;49.716;17.158;2024-01-15T13:35:11;9.63;;;4.10;;
77586;SDS011;66744;49.716;17.158;2024-01-15T13:38:19;8.63;;;4.20;;
77586;SDS011;66744;49.716;17.158;2024-01-15T13:41:22;7.68;;;3.65;;
77586;SDS011;66744;49.716;17.158;2024-01-15T13:44:29;7.13;;;3.05;;
77586;SDS011;66744;49.716;17.158;2024-01-15T13:47:33;8.77;;;4.63;;
77586;SDS011;66744;49.716;17.158;2024-01-15T13:50:40;6.97;;;3.88;;
77586;SDS011;66744;49.716;17.158;2024-01-15T13:53:44;8.55;;;3.70;;
77586;SDS011;66744;49.716;17.158;2024-01-15T13:56:47;6.68;;;3.65;;
77586;SDS011;66744;49.716;17.158;2024-01-15T13:59:48;7.60;;;3.28;;
77586;SDS011;66744;49.716;17.158;2024-01-15T14:02:53;8.35;;;4.85;;
77586;SDS011;66744;49.716;17.158;2024-01-15T14:05:55;6.93;;;3.72;;
77586;SDS011;66744;49.716;17.158;2024-01-15T14:08:56;7.15;;;3.83;;
77586;SDS011;66744;49.716;17.158;2024-01-15T14:12:04;8.93;;;4.22;;
77586;SDS011;66744;49.716;17.158;2024-01-15T14:15:09;8.50;;;3.95;;
77586;SDS011;66744;49.716;17.158;2024-01-15T14:18:11;9.73;;;3.90;;
77586;SDS011;66744;49.716;17.158;2024-01-15T14:21:14;7.47;;;3.65;;
77586;SDS011;66744;49.716;17.158;2024-01-15T14:24:19;7.28;;;3.78;;
77586;SDS011;66744;49.716;17.158;2024-01-15T14:27:34;8.18;;;3.90;;
77586;SDS011;66744;49.716;17.158;2024-01-15T14:30:39;7.38;;;3.95;;
77586;SDS011;66744;49.716;17.158;2024-01-15T14:33:45;8.35;;;4.22;;
77586;SDS011;66744;49.716;17.158;2024-01-15T14:36:48;8.32;;;4.10;;
77586;SDS011;66744;49.716;17.158;2024-01-15T14:39:50;9.80;;;5.20;;
77586;SDS011;66744;49.716;17.158;2024-01-15T14:42:52;9.63;;;5.25;;
77586;SDS011;66744;49.716;17.158;2024-01-15T14:45:55;7.18;;;3.80;;
77586;SDS011;66744;49.716;17.158;2024-01-15T14:48:57;9.68;;;4.10;;
77586;SDS011;66744;49.716;17.158;2024-01-15T14:52:05;7.18;;;4.00;;
77586;SDS011;66744;49.716;17.158;2024-01-15T14:55:09;9.85;;;3.85;;
77586;SDS011;66744;49.716;17.158;2024-01-15T14:58:11;6.47;;;3.58;;
77586;SDS011;66744;49.716;17.158;2024-01-15T15:01:14;7.70;;;3.20;;
77586;SDS011;66744;49.716;17.158;2024-01-15T15:04:21;7.97;;;3.70;;
77586;SDS011;66744;49.716;17.158;2024-01-15T15:07:23;9.77;;;4.95;;
77586;SDS011;66744;49.716;17.158;2024-01-15T15:10:28;6.00;;;3.25;;
77586;SDS011;66744;49.716;17.158;2024-01-15T15:13:32;7.47;;;3.65;;
77586;SDS011;66744;49.716;17.158;2024-01-15T15:16:40;7.47;;;3.63;;
77586;SDS011;66744;49.716;17.158;2024-01-15T15:19:47;6.97;;;3.63;;
77586;SDS011;66744;49.716;17.158;2024-01-15T15:22:48;6.70;;;2.92;;
77586;SDS011;66744;49.716;17.158;2024-01-15T15:25:57;8.38;;;3.67;;
77586;SDS011;66744;49.716;17.158;2024-01-15T15:28:59;5.97;;;3.03;;
77586;SDS011;66744;49.716;17.158;2024-01-15T15:32:02;9.27;;;3.53;;
77586;SDS011;66744;49.716;17.158;2024-01-15T15:35:07;8.23;;;4.03;;
77586;SDS011;66744;49.716;17.158;2024-01-15T15:38:11;22.15;;;8.25;;
77586;SDS011;66744;49.716;17.158;2024-01-15T15:41:12;14.65;;;5.22;;
77586;SDS011;66744;49.716;17.158;2024-01-15T15:44:17;11.85;;;5.45;;
77586;SDS011;66744;49.716;17.158;2024-01-15T15:47:22;8.80;;;4.35;;
77586;SDS011;66744;49.716;17.158;2024-01-15T15:50:24;5.72;;;4.07;;
77586;SDS011;66744;49.716;17.158;2024-01-15T15:53:26;7.70;;;4.43;;
77586;SDS011;66744;49.716;17.158;2024-01-15T15:56:29;25.17;;;11.80;;
77586;SDS011;66744;49.716;17.158;2024-01-15T15:59:35;23.35;;;13.02;;
77586;SDS011;66744;49.716;17.158;2024-01-15T16:02:37;16.67;;;9.55;;
77586;SDS011;66744;49.716;17.158;2024-01-15T16:05:39;10.50;;;6.55;;
77586;SDS011;66744;49.716;17.158;2024-01-15T16:08:40;16.92;;;9.13;;
77586;SDS011;66744;49.716;17.158;2024-01-15T16:11:43;10.57;;;5.82;;
77586;SDS011;66744;49.716;17.158;2024-01-15T16:14:47;11.27;;;7.43;;
77586;SDS011;66744;49.716;17.158;2024-01-15T16:17:50;8.95;;;6.20;;
77586;SDS011;66744;49.716;17.158;2024-01-15T16:20:53;9.07;;;4.45;;
77586;SDS011;66744;49.716;17.158;2024-01-15T16:23:55;7.13;;;4.53;;
77586;SDS011;66744;49.716;17.158;2024-01-15T16:26:59;7.25;;;5.05;;
77586;SDS011;66744;49.716;17.158;2024-01-15T16:30:05;6.80;;;3.60;;
77586;SDS011;66744;49.716;17.158;2024-01-15T16:33:09;9.65;;;4.72;;
77586;SDS011;66744;49.716;17.158;2024-01-15T16:36:11;8.43;;;3.72;;
77586;SDS011;66744;49.716;17.158;2024-01-15T16:39:14;7.30;;;3.63;;
77586;SDS011;66744;49.716;17.158;2024-01-15T16:42:21;6.93;;;3.90;;
77586;SDS011;66744;49.716;17.158;2024-01-15T16:45:28;5.38;;;3.08;;
77586;SDS011;66744;49.716;17.158;2024-01-15T16:48:31;6.75;;;3.30;;
77586;SDS011;66744;49.716;17.158;2024-01-15T16:51:34;7.43;;;4.82;;
77586;SDS011;66744;49.716;17.158;2024-01-15T16:54:41;7.65;;;4.20;;
77586;SDS011;66744;49.716;17.158;2024-01-15T16:57:44;5.63;;;3.85;;
77586;SDS011;66744;49.716;17.158;2024-01-15T17:00:46;9.10;;;4.47;;
77586;SDS011;66744;49.716;17.158;2024-01-15T17:03:48;5.35;;;3.75;;
77586;SDS011;66744;49.716;17.158;2024-01-15T17:06:49;6.93;;;2.92;;
77586;SDS011;66744;49.716;17.158;2024-01-15T17:09:51;5.22;;;2.97;;
77586;SDS011;66744;49.716;17.158;2024-01-15T17:12:55;10.20;;;5.70;;
77586;SDS011;66744;49.716;17.158;2024-01-15T17:16:01;8.43;;;3.85;;
77586;SDS011;66744;49.716;17.158;2024-01-15T17:19:05;4.45;;;2.65;;
77586;SDS011;66744;49.716;17.158;2024-01-15T17:22:08;5.90;;;3.03;;
77586;SDS011;66744;49.716;17.158;2024-01-15T17:25:10;5.05;;;3.35;;
77586;SDS011;66744;49.716;17.158;2024-01-15T17:28:21;5.50;;;2.60;;
77586;SDS011;66744;49.716;17.158;2024-01-15T17:31:24;6.00;;;2.97;;
77586;SDS011;66744;49.716;17.158;2024-01-15T17:34:28;6.78;;;3.25;;
77586;SDS011;66744;49.716;17.158;2024-01-15T17:37:30;5.88;;;2.78;;
77586;SDS011;66744;49.716;17.158;2024-01-15T17:40:32;5.75;;;3.58;;
77586;SDS011;66744;49.716;17.158;2024-01-15T17:43:36;5.63;;;2.92;;
77586;SDS011;66744;49.716;17.158;2024-01-15T17:46:40;5.38;;;4.07;;
77586;SDS011;66744;49.716;17.158;2024-01-15T17:49:45;5.35;;;3.33;;
77586;SDS011;66744;49.716;17.158;2024-01-15T17:52:50;5.10;;;2.67;;
77586;SDS011;66744;49.716;17.158;2024-01-15T17:55:51;4.20;;;3.03;;
77586;SDS011;66744;49.716;17.158;2024-01-15T17:58:55;6.32;;;3.95;;
77586;SDS011;66744;49.716;17.158;2024-01-15T18:02:00;5.20;;;2.55;;
77586;SDS011;66744;49.716;17.158;2024-01-15T18:05:03;4.18;;;2.47;;
77586;SDS011;66744;49.716;17.158;2024-01-15T18:08:06;4.93;;;3.00;;
77586;SDS011;66744;49.716;17.158;2024-01-15T18:11:19;5.38;;;3.13;;
77586;SDS011;66744;49.716;17.158;2024-01-15T18:14:36;7.30;;;3.42;;
77586;SDS011;66744;49.716;17.158;2024-01-15T18:17:52;5.90;;;3.60;;
77586;SDS011;66744;49.716;17.158;2024-01-15T18:20:55;8.00;;;3.10;;
77586;SDS011;66744;49.716;17.158;2024-01-15T18:23:57;6.00;;;3.28;;